createdAt,value
2017-06-12T00:01:39.158Z,23.80
2017-06-12T00:04:06.613Z,23.80
2017-06-12T00:06:33.866Z,23.80
2017-06-12T00:09:01.324Z,23.80
2017-06-12T00:11:28.576Z,23.90
2017-06-12T00:13:55.193Z,23.90
2017-06-12T00:16:22.474Z,23.90
2017-06-12T00:18:49.088Z,23.90
2017-06-12T00:21:16.750Z,23.90
2017-06-12T00:23:43.404Z,23.90
2017-06-12T00:26:10.042Z,23.90
2017-06-12T00:28:37.294Z,23.80
2017-06-12T00:31:05.237Z,23.80
2017-06-12T00:33:31.767Z,23.80
2017-06-12T00:35:58.540Z,23.80
2017-06-12T00:38:40.105Z,23.80
2017-06-12T00:41:06.765Z,23.80
2017-06-12T00:43:33.402Z,23.80
2017-06-12T00:46:00.017Z,23.70
2017-06-12T00:48:26.657Z,23.70
2017-06-12T00:50:53.319Z,23.70
2017-06-12T00:53:19.957Z,23.80
2017-06-12T00:55:47.618Z,23.70
2017-06-12T00:58:14.254Z,23.70
2017-06-12T01:00:40.893Z,23.60
2017-06-12T01:03:08.870Z,23.70
2017-06-12T01:05:35.391Z,23.60
2017-06-12T01:08:02.812Z,23.60
2017-06-12T01:10:29.574Z,23.60
2017-06-12T01:12:56.209Z,23.60
2017-06-12T01:15:22.849Z,23.60
2017-06-12T01:17:49.484Z,23.60
2017-06-12T01:20:16.145Z,23.60
2017-06-12T01:22:42.784Z,23.60
2017-06-12T01:25:10.446Z,23.60
2017-06-12T01:27:37.086Z,23.60
2017-06-12T01:30:03.722Z,23.60
2017-06-12T01:32:31.182Z,23.60
2017-06-12T01:34:57.818Z,23.60
2017-06-12T01:37:24.428Z,23.60
2017-06-12T01:39:51.884Z,23.60
2017-06-12T01:42:18.550Z,23.60
2017-06-12T01:44:45.188Z,23.50
2017-06-12T01:47:11.826Z,23.50
2017-06-12T01:49:38.464Z,23.50
2017-06-12T01:52:05.716Z,23.60
2017-06-12T01:54:32.353Z,23.50
2017-06-12T01:56:58.978Z,23.50
2017-06-12T01:59:25.608Z,23.50
2017-06-12T02:01:52.267Z,23.40
2017-06-12T02:04:18.864Z,23.40
2017-06-12T02:06:46.012Z,23.30
2017-06-12T02:09:12.773Z,23.40
2017-06-12T02:11:39.433Z,23.40
2017-06-12T02:14:06.072Z,23.40
2017-06-12T02:16:32.708Z,23.30
2017-06-12T02:18:59.321Z,23.30
2017-06-12T02:21:25.986Z,23.30
2017-06-12T02:23:52.623Z,23.20
2017-06-12T02:26:20.080Z,23.30
2017-06-12T02:28:46.718Z,23.20
2017-06-12T02:31:13.332Z,23.20
2017-06-12T02:33:39.993Z,23.20
2017-06-12T02:36:06.837Z,23.20
2017-06-12T02:38:33.679Z,23.10
2017-06-12T02:41:15.163Z,23.20
2017-06-12T02:43:56.608Z,23.10
2017-06-12T02:46:38.832Z,23.20
2017-06-12T02:49:20.290Z,23.10
2017-06-12T02:52:01.709Z,23.10
2017-06-12T02:54:43.248Z,23.10
2017-06-12T02:57:24.957Z,23.10
2017-06-12T03:00:06.502Z,23.10
2017-06-12T03:02:34.151Z,23.00
2017-06-12T03:05:15.593Z,23.00
2017-06-12T03:07:57.148Z,23.00
2017-06-12T03:10:49.956Z,22.90
2017-06-12T03:13:16.616Z,22.90
2017-06-12T03:15:58.281Z,22.90
2017-06-12T03:18:40.055Z,22.90
2017-06-12T03:21:06.818Z,22.90
2017-06-12T03:23:34.095Z,22.90
2017-06-12T03:26:00.932Z,22.80
2017-06-12T03:28:27.550Z,22.70
2017-06-12T03:30:56.257Z,22.70
2017-06-12T03:33:22.895Z,22.70
2017-06-12T03:35:49.505Z,22.60
2017-06-12T03:38:16.150Z,22.50
2017-06-12T03:40:43.423Z,22.50
2017-06-12T03:43:10.036Z,22.40
2017-06-12T03:45:37.722Z,22.30
2017-06-12T03:48:04.331Z,22.30
2017-06-12T03:50:30.998Z,22.20
2017-06-12T03:52:58.659Z,22.20
2017-06-12T03:55:25.297Z,22.20
2017-06-12T03:57:51.936Z,22.10
2017-06-12T04:00:18.556Z,22.10
2017-06-12T04:02:45.194Z,22.00
2017-06-12T04:05:11.849Z,22.00
2017-06-12T04:07:38.461Z,21.90
2017-06-12T04:10:05.739Z,21.80
2017-06-12T04:12:32.377Z,21.90
2017-06-12T04:15:00.014Z,22.00
2017-06-12T04:17:26.678Z,21.90
2017-06-12T04:19:54.472Z,22.00
2017-06-12T04:22:21.783Z,22.00
2017-06-12T04:24:48.434Z,22.00
2017-06-12T04:27:15.987Z,22.00
2017-06-12T04:29:42.733Z,22.10
2017-06-12T04:32:09.975Z,22.10
2017-06-12T04:34:36.624Z,22.00
2017-06-12T04:37:05.487Z,22.00
2017-06-12T04:39:32.124Z,22.10
2017-06-12T04:41:58.790Z,22.10
2017-06-12T04:44:26.247Z,22.10
2017-06-12T04:46:52.885Z,22.10
2017-06-12T04:49:19.523Z,22.00
2017-06-12T04:51:46.162Z,22.20
2017-06-12T04:54:12.773Z,22.40
2017-06-12T04:56:39.412Z,22.60
2017-06-12T04:59:06.073Z,22.80
2017-06-12T05:01:32.712Z,23.00
2017-06-12T05:03:59.374Z,23.10
2017-06-12T05:06:26.785Z,23.20
2017-06-12T05:08:53.447Z,23.20
2017-06-12T05:11:20.087Z,23.20
2017-06-12T05:13:46.700Z,23.30
2017-06-12T05:16:13.234Z,23.50
2017-06-12T05:18:39.973Z,23.80
2017-06-12T05:21:06.635Z,24.10
2017-06-12T05:23:33.249Z,24.00
2017-06-12T05:25:59.911Z,23.90
2017-06-12T05:28:26.550Z,24.20
2017-06-12T05:30:53.187Z,24.20
2017-06-12T05:33:20.553Z,24.50
2017-06-12T05:35:47.076Z,24.50
2017-06-12T05:38:13.714Z,24.20
2017-06-12T05:40:40.352Z,24.00
2017-06-12T05:43:06.991Z,24.30
2017-06-12T05:45:33.628Z,24.20
2017-06-12T05:48:00.266Z,24.10
2017-06-12T05:50:26.906Z,24.10
2017-06-12T05:52:53.521Z,24.00
2017-06-12T05:55:20.180Z,23.80
2017-06-12T05:58:01.744Z,23.60
2017-06-12T06:00:28.406Z,23.50
2017-06-12T06:02:55.016Z,23.60
2017-06-12T06:05:21.682Z,23.50
2017-06-12T06:07:48.320Z,23.60
2017-06-12T06:10:14.957Z,23.70
2017-06-12T06:12:41.596Z,23.60
2017-06-12T06:15:08.233Z,23.40
2017-06-12T06:17:34.872Z,23.30
2017-06-12T06:20:01.510Z,23.40
2017-06-12T06:22:28.128Z,23.30
2017-06-12T06:24:55.399Z,23.40
2017-06-12T06:27:22.016Z,23.40
2017-06-12T06:29:49.495Z,23.40
2017-06-12T06:32:16.132Z,23.40
2017-06-12T06:34:42.748Z,23.40
2017-06-12T06:37:09.410Z,23.40
2017-06-12T06:39:36.046Z,23.30
2017-06-12T06:42:03.125Z,23.20
2017-06-12T06:44:29.710Z,23.20
2017-06-12T06:46:57.189Z,22.90
2017-06-12T06:49:23.743Z,22.90
2017-06-12T06:51:50.874Z,22.80
2017-06-12T06:54:17.490Z,22.60
2017-06-12T06:56:44.152Z,22.70
2017-06-12T06:59:10.789Z,22.70
2017-06-12T07:01:37.285Z,23.00
2017-06-12T07:04:04.996Z,23.40
2017-06-12T07:06:31.724Z,23.60
2017-06-12T07:08:58.280Z,23.80
2017-06-12T07:11:24.986Z,23.70
2017-06-12T07:13:51.480Z,23.40
2017-06-12T07:16:19.132Z,23.40
2017-06-12T07:18:45.734Z,23.20
2017-06-12T07:21:12.348Z,22.80
2017-06-12T07:23:39.029Z,22.70
2017-06-12T07:26:05.631Z,22.60
2017-06-12T07:28:32.115Z,22.60
2017-06-12T07:30:58.721Z,22.60
2017-06-12T07:33:25.357Z,22.60
2017-06-12T07:35:51.968Z,22.60
2017-06-12T07:38:18.636Z,22.60
2017-06-12T07:40:45.271Z,22.40
2017-06-12T07:43:11.908Z,22.20
2017-06-12T07:45:38.525Z,22.20
2017-06-12T07:48:05.168Z,22.40
2017-06-12T07:50:31.822Z,22.60
2017-06-12T07:52:58.432Z,22.50
2017-06-12T07:55:25.098Z,22.40
2017-06-12T07:57:51.714Z,22.50
2017-06-12T08:00:18.374Z,22.70
2017-06-12T08:02:44.984Z,22.80
2017-06-12T08:05:11.557Z,22.90
2017-06-12T08:07:38.264Z,23.00
2017-06-12T08:10:04.924Z,23.10
2017-06-12T08:12:31.563Z,23.20
2017-06-12T08:14:58.202Z,23.60
2017-06-12T08:17:25.337Z,24.90
2017-06-12T08:19:52.069Z,27.40
2017-06-12T08:22:18.730Z,27.10
2017-06-12T08:24:45.900Z,26.10
2017-06-12T08:27:12.592Z,28.20
2017-06-12T08:29:39.257Z,28.60
2017-06-12T08:32:05.868Z,29.50
2017-06-12T08:34:32.536Z,30.90
2017-06-12T08:36:59.739Z,31.20
2017-06-12T08:39:27.039Z,32.00
2017-06-12T08:41:53.653Z,32.10
2017-06-12T08:44:20.957Z,31.50
2017-06-12T08:46:47.566Z,33.10
2017-06-12T08:49:14.180Z,33.00
2017-06-12T08:51:40.843Z,33.30
2017-06-12T08:54:07.480Z,33.30
2017-06-12T08:56:34.528Z,34.10
2017-06-12T08:59:01.166Z,33.70
2017-06-12T09:01:27.776Z,33.40
2017-06-12T09:03:54.440Z,32.30
2017-06-12T09:06:21.283Z,33.00
2017-06-12T09:08:47.921Z,34.00
2017-06-12T09:11:14.559Z,33.80
2017-06-12T09:13:41.198Z,34.40
2017-06-12T09:16:07.835Z,36.40
2017-06-12T09:18:34.473Z,37.10
2017-06-12T09:21:01.731Z,39.10
2017-06-12T09:23:28.342Z,40.50
2017-06-12T09:25:55.003Z,40.50
2017-06-12T09:28:21.623Z,44.30
2017-06-12T09:30:49.186Z,45.60
2017-06-12T09:33:16.256Z,44.30
2017-06-12T09:35:42.753Z,47.30
2017-06-12T09:38:10.045Z,47.10
2017-06-12T09:40:37.491Z,46.80
2017-06-12T09:43:04.128Z,44.00
2017-06-12T09:45:31.382Z,42.60
2017-06-12T09:47:57.998Z,43.90
2017-06-12T09:50:25.169Z,45.50
2017-06-12T09:52:51.807Z,45.10
2017-06-12T09:55:18.429Z,45.30
2017-06-12T09:57:45.084Z,44.70
2017-06-12T10:00:11.825Z,43.80
2017-06-12T10:02:38.462Z,41.40
2017-06-12T10:05:05.102Z,41.60
2017-06-12T10:07:31.736Z,42.70
2017-06-12T10:09:58.354Z,41.90
2017-06-12T10:12:25.012Z,38.50
2017-06-12T10:14:51.628Z,36.20
2017-06-12T10:17:19.108Z,33.10
2017-06-12T10:19:46.361Z,31.60
2017-06-12T10:22:13.434Z,31.60
2017-06-12T10:24:40.045Z,31.70
2017-06-12T10:27:06.683Z,31.60
2017-06-12T10:29:33.322Z,30.30
2017-06-12T10:32:00.063Z,29.50
2017-06-12T10:34:27.110Z,28.40
2017-06-12T10:36:53.747Z,28.20
2017-06-12T10:39:20.385Z,28.20
2017-06-12T10:41:47.002Z,27.70
2017-06-12T10:44:13.661Z,27.40
2017-06-12T10:46:40.914Z,27.50
2017-06-12T10:49:07.531Z,27.20
2017-06-12T10:51:34.614Z,27.50
2017-06-12T10:54:01.733Z,27.30
2017-06-12T10:56:28.284Z,27.20
2017-06-12T10:58:54.921Z,27.10
2017-06-12T11:01:21.560Z,27.30
2017-06-12T11:03:48.199Z,27.50
2017-06-12T11:06:14.813Z,27.50
2017-06-12T11:08:41.475Z,27.30
2017-06-12T11:11:08.564Z,27.00
2017-06-12T11:13:35.147Z,27.10
2017-06-12T11:16:01.798Z,27.00
2017-06-12T11:18:28.434Z,27.40
2017-06-12T11:20:55.073Z,27.30
2017-06-12T11:23:21.713Z,26.80
2017-06-12T11:25:48.537Z,26.60
2017-06-12T11:28:15.163Z,26.70
2017-06-12T11:30:46.540Z,26.30
2017-06-12T11:33:13.178Z,26.20
2017-06-12T11:35:39.788Z,26.20
2017-06-12T11:38:06.453Z,26.30
2017-06-12T11:40:33.092Z,26.40
2017-06-12T11:42:59.729Z,26.60
2017-06-12T11:45:26.369Z,26.60
2017-06-12T11:47:53.006Z,26.50
2017-06-12T11:50:19.621Z,26.40
2017-06-12T11:52:46.281Z,26.40
2017-06-12T11:55:13.409Z,26.40
2017-06-12T11:57:40.151Z,26.60
2017-06-12T12:00:06.809Z,26.50
2017-06-12T12:02:33.420Z,26.30
2017-06-12T12:05:00.161Z,26.10
2017-06-12T12:07:26.825Z,26.30
2017-06-12T12:09:53.440Z,26.30
2017-06-12T12:12:20.101Z,26.30
2017-06-12T12:14:47.207Z,26.20
2017-06-12T12:17:13.785Z,26.10
2017-06-12T12:19:40.425Z,26.00
2017-06-12T12:22:07.677Z,26.20
2017-06-12T12:24:34.315Z,26.20
2017-06-12T12:27:01.480Z,26.30
2017-06-12T12:29:28.207Z,26.20
2017-06-12T12:31:54.846Z,26.30
2017-06-12T12:34:22.110Z,26.40
2017-06-12T12:36:49.202Z,26.30
2017-06-12T12:39:15.780Z,26.10
2017-06-12T12:41:42.418Z,26.10
2017-06-12T12:44:09.028Z,26.30
2017-06-12T12:46:35.668Z,26.20
2017-06-12T12:49:02.947Z,26.00
2017-06-12T12:51:29.584Z,26.10
2017-06-12T12:53:56.200Z,25.90
2017-06-12T12:56:22.836Z,26.20
2017-06-12T12:58:49.332Z,26.30
2017-06-12T13:01:16.136Z,26.10
2017-06-12T13:03:42.773Z,26.30
2017-06-12T13:06:09.412Z,26.30
2017-06-12T13:08:36.653Z,26.20
2017-06-12T13:11:03.303Z,26.10
2017-06-12T13:13:29.940Z,26.10
2017-06-12T13:15:56.578Z,26.20
2017-06-12T13:18:23.194Z,26.20
2017-06-12T13:20:50.469Z,26.40
2017-06-12T13:23:17.105Z,26.30
2017-06-12T13:25:43.744Z,26.20
2017-06-12T13:28:10.565Z,26.10
2017-06-12T13:30:37.839Z,25.90
2017-06-12T13:33:04.449Z,26.00
2017-06-12T13:35:31.094Z,26.10
2017-06-12T13:37:57.754Z,26.00
2017-06-12T13:40:24.371Z,25.90
2017-06-12T13:42:52.239Z,25.90
2017-06-12T13:45:18.894Z,26.00
2017-06-12T13:47:46.079Z,26.20
2017-06-12T13:50:12.761Z,26.30
2017-06-12T13:52:39.423Z,26.20
2017-06-12T13:55:06.045Z,26.20
2017-06-12T13:57:33.127Z,26.00
2017-06-12T14:00:01.181Z,26.20
2017-06-12T14:02:27.800Z,26.20
2017-06-12T14:04:54.428Z,26.30
2017-06-12T14:07:21.093Z,26.20
2017-06-12T14:09:48.276Z,26.30
2017-06-12T14:12:15.599Z,26.30
2017-06-12T14:14:42.212Z,26.30
2017-06-12T14:17:08.874Z,26.20
2017-06-12T14:19:35.368Z,26.30
2017-06-12T14:22:02.691Z,26.30
2017-06-12T14:24:29.382Z,26.10
2017-06-12T14:26:57.129Z,25.90
2017-06-12T14:29:23.702Z,25.60
2017-06-12T14:31:50.341Z,25.50
2017-06-12T14:34:17.388Z,25.50
2017-06-12T14:36:44.001Z,25.50
2017-06-12T14:39:10.641Z,25.50
2017-06-12T14:41:37.302Z,25.40
2017-06-12T14:44:03.917Z,25.50
2017-06-12T14:46:30.578Z,25.60
2017-06-12T14:48:57.216Z,25.60
2017-06-12T14:51:23.854Z,25.50
2017-06-12T14:53:51.348Z,25.60
2017-06-12T14:56:18.788Z,25.70
2017-06-12T14:58:45.408Z,25.80
2017-06-12T15:01:12.043Z,25.80
2017-06-12T15:03:38.680Z,25.90
2017-06-12T15:06:05.319Z,25.90
2017-06-12T15:08:31.956Z,25.80
2017-06-12T15:10:59.119Z,25.70
2017-06-12T15:13:25.633Z,25.70
2017-06-12T15:15:52.280Z,25.70
2017-06-12T15:18:18.920Z,25.80
2017-06-12T15:20:45.557Z,25.80
2017-06-12T15:23:12.193Z,25.70
2017-06-12T15:25:38.940Z,25.60
2017-06-12T15:28:05.573Z,25.70
2017-06-12T15:30:32.211Z,25.80
2017-06-12T15:32:58.848Z,25.80
2017-06-12T15:35:25.489Z,25.60
2017-06-12T15:37:52.124Z,25.50
2017-06-12T15:40:18.762Z,25.60
2017-06-12T15:42:45.399Z,25.50
2017-06-12T15:45:12.038Z,25.40
2017-06-12T15:47:38.654Z,25.40
2017-06-12T15:50:08.032Z,25.40
2017-06-12T15:52:34.997Z,25.30
2017-06-12T15:55:01.662Z,25.20
2017-06-12T15:57:30.004Z,25.10
2017-06-12T15:59:56.782Z,25.00
2017-06-12T16:02:23.402Z,25.00
2017-06-12T16:04:50.032Z,25.00
2017-06-12T16:07:16.695Z,24.80
2017-06-12T16:09:43.248Z,24.80
2017-06-12T16:12:09.969Z,24.80
2017-06-12T16:14:36.608Z,24.80
2017-06-12T16:17:03.246Z,24.70
2017-06-12T16:19:29.856Z,24.80
2017-06-12T16:21:56.705Z,24.80
2017-06-12T16:24:24.017Z,24.80
2017-06-12T16:26:50.821Z,24.80
2017-06-12T16:29:17.433Z,24.90
2017-06-12T16:31:44.338Z,25.00
2017-06-12T16:34:11.540Z,25.00
2017-06-12T16:36:38.252Z,24.90
2017-06-12T16:39:04.908Z,24.80
2017-06-12T16:41:31.674Z,24.80
2017-06-12T16:43:58.311Z,24.70
2017-06-12T16:46:25.153Z,24.70
2017-06-12T16:48:51.792Z,24.80
2017-06-12T16:51:18.431Z,24.80
2017-06-12T16:53:45.869Z,24.70
2017-06-12T16:56:12.502Z,24.70
2017-06-12T16:58:39.161Z,24.70
2017-06-12T17:01:05.776Z,24.70
2017-06-12T17:03:32.662Z,24.80
2017-06-12T17:06:00.306Z,24.60
2017-06-12T17:08:26.943Z,24.50
2017-06-12T17:10:53.557Z,24.40
2017-06-12T17:13:20.219Z,24.30
2017-06-12T17:15:46.858Z,24.30
2017-06-12T17:18:13.365Z,24.40
2017-06-12T17:20:40.114Z,24.30
2017-06-12T17:23:07.698Z,24.20
2017-06-12T17:25:34.416Z,24.20
2017-06-12T17:28:01.172Z,24.20
2017-06-12T17:30:27.913Z,24.10
2017-06-12T17:32:55.176Z,24.10
2017-06-12T17:35:21.964Z,24.10
2017-06-12T17:37:48.624Z,23.90
2017-06-12T17:40:15.284Z,23.80
2017-06-12T17:42:41.922Z,23.80
2017-06-12T17:45:09.137Z,23.70
2017-06-12T17:47:35.790Z,23.70
2017-06-12T17:50:03.065Z,23.70
2017-06-12T17:52:29.637Z,23.60
2017-06-12T17:54:56.340Z,23.70
2017-06-12T17:57:23.096Z,23.60
2017-06-12T17:59:49.804Z,23.50
2017-06-12T18:02:16.458Z,23.40
2017-06-12T18:04:44.121Z,23.40
2017-06-12T18:07:11.202Z,23.30
2017-06-12T18:09:39.276Z,23.20
2017-06-12T18:12:05.866Z,23.10
2017-06-12T18:14:33.684Z,23.10
2017-06-12T18:17:00.457Z,23.10
2017-06-12T18:19:27.095Z,23.00
2017-06-12T18:21:53.761Z,22.90
2017-06-12T18:24:21.016Z,22.90
2017-06-12T18:26:47.624Z,22.80
2017-06-12T18:29:14.289Z,22.70
2017-06-12T18:31:40.907Z,22.70
2017-06-12T18:34:07.564Z,22.60
2017-06-12T18:36:34.136Z,22.50
2017-06-12T18:39:00.716Z,22.40
2017-06-12T18:41:27.452Z,22.40
2017-06-12T18:43:54.087Z,22.30
2017-06-12T18:46:20.753Z,22.20
2017-06-12T18:48:47.392Z,22.20
2017-06-12T18:51:14.031Z,22.10
2017-06-12T18:53:40.668Z,22.10
2017-06-12T18:56:07.307Z,22.00
2017-06-12T18:58:48.952Z,22.00
2017-06-12T19:01:15.634Z,22.10
2017-06-12T19:03:42.281Z,22.10
2017-06-12T19:06:08.911Z,22.00
2017-06-12T19:08:36.397Z,21.90
2017-06-12T19:11:03.210Z,21.90
2017-06-12T19:13:29.848Z,21.80
2017-06-12T19:15:56.486Z,21.80
2017-06-12T19:18:23.124Z,21.60
2017-06-12T19:20:49.763Z,21.60
2017-06-12T19:23:16.332Z,21.40
2017-06-12T19:25:43.653Z,21.30
2017-06-12T19:28:10.290Z,21.30
2017-06-12T19:30:37.542Z,21.10
2017-06-12T19:33:04.385Z,20.90
2017-06-12T19:35:31.002Z,20.90
2017-06-12T19:37:57.659Z,20.90
2017-06-12T19:40:24.298Z,20.80
2017-06-12T19:42:50.938Z,20.70
2017-06-12T19:45:17.555Z,20.60
2017-06-12T19:47:44.930Z,20.60
2017-06-12T19:50:11.673Z,20.60
2017-06-12T19:52:38.310Z,20.60
2017-06-12T19:55:04.946Z,20.50
2017-06-12T19:57:31.586Z,20.50
2017-06-12T19:59:58.620Z,20.50
2017-06-12T20:02:25.269Z,20.40
2017-06-12T20:04:51.881Z,20.40
2017-06-12T20:07:19.144Z,20.30
2017-06-12T20:09:45.798Z,20.20
2017-06-12T20:12:13.448Z,20.20
2017-06-12T20:14:40.097Z,20.10
2017-06-12T20:17:06.714Z,20.00
2017-06-12T20:19:33.373Z,19.90
2017-06-12T20:22:00.473Z,19.90
2017-06-12T20:24:27.242Z,19.90
2017-06-12T20:26:53.817Z,19.70
2017-06-12T20:29:20.518Z,19.70
2017-06-12T20:31:47.177Z,19.60
2017-06-12T20:34:13.815Z,19.60
2017-06-12T20:36:40.451Z,19.60
2017-06-12T20:39:07.774Z,19.50
2017-06-12T20:41:34.445Z,19.40
2017-06-12T20:44:01.084Z,19.40
2017-06-12T20:46:28.130Z,19.40
2017-06-12T20:48:55.383Z,19.20
2017-06-12T20:51:22.592Z,19.10
2017-06-12T20:53:49.253Z,19.20
2017-06-12T20:56:16.117Z,19.20
2017-06-12T20:58:42.754Z,19.10
2017-06-12T21:01:09.494Z,19.00
2017-06-12T21:03:36.109Z,18.90
2017-06-12T21:06:02.770Z,18.80
2017-06-12T21:08:29.408Z,18.80
2017-06-12T21:10:56.149Z,18.70
2017-06-12T21:13:22.786Z,18.70
2017-06-12T21:15:49.954Z,18.70
2017-06-12T21:18:16.676Z,18.70
2017-06-12T21:20:43.298Z,18.70
2017-06-12T21:23:10.772Z,18.70
2017-06-12T21:25:37.613Z,18.60
2017-06-12T21:28:04.252Z,18.60
2017-06-12T21:30:30.874Z,18.60
2017-06-12T21:32:57.528Z,18.50
2017-06-12T21:35:24.958Z,18.40
2017-06-12T21:37:51.622Z,18.40
2017-06-12T21:40:18.234Z,18.30
2017-06-12T21:42:44.898Z,18.20
2017-06-12T21:45:11.742Z,18.00
2017-06-12T21:47:39.100Z,18.10
2017-06-12T21:50:05.808Z,18.00
2017-06-12T21:52:32.474Z,18.00
2017-06-12T21:54:59.552Z,17.90
2017-06-12T21:57:26.365Z,17.90
2017-06-12T21:59:53.036Z,17.80
2017-06-12T22:02:19.742Z,17.70
2017-06-12T22:04:46.381Z,17.60
2017-06-12T22:07:13.196Z,17.50
2017-06-12T22:09:39.862Z,17.50
2017-06-12T22:12:07.116Z,17.40
2017-06-12T22:14:33.937Z,17.30
2017-06-12T22:17:01.123Z,17.20
2017-06-12T22:19:27.826Z,17.20
2017-06-12T22:21:54.484Z,17.20
2017-06-12T22:24:21.121Z,17.20
2017-06-12T22:26:47.761Z,17.20
2017-06-12T22:29:14.398Z,17.10
2017-06-12T22:31:41.435Z,17.10
2017-06-12T22:34:08.057Z,17.00
2017-06-12T22:36:34.721Z,17.00
2017-06-12T22:39:01.745Z,17.00
2017-06-12T22:41:28.380Z,16.90
2017-06-12T22:43:55.015Z,16.90
2017-06-12T22:46:22.268Z,16.90
2017-06-12T22:48:48.935Z,16.90
2017-06-12T22:51:15.571Z,16.90
2017-06-12T22:53:42.210Z,16.90
2017-06-12T22:56:08.820Z,16.80
2017-06-12T22:58:35.486Z,16.80
2017-06-12T23:01:02.124Z,16.70
2017-06-12T23:03:28.632Z,16.60
2017-06-12T23:06:10.723Z,16.50
2017-06-12T23:08:37.891Z,16.50
2017-06-12T23:11:05.136Z,16.40
2017-06-12T23:13:32.722Z,16.30
2017-06-12T23:15:59.336Z,16.30
2017-06-12T23:18:25.998Z,16.30
2017-06-12T23:20:52.619Z,16.30
2017-06-12T23:23:19.244Z,16.30
2017-06-12T23:25:52.158Z,16.30
2017-06-12T23:28:19.369Z,16.20
2017-06-12T23:30:46.020Z,16.20
2017-06-12T23:33:13.131Z,16.20
2017-06-12T23:35:39.939Z,16.20
2017-06-12T23:38:06.576Z,16.20
2017-06-12T23:40:34.238Z,16.20
2017-06-12T23:43:00.877Z,16.10
2017-06-12T23:48:03.573Z,16.10
2017-06-12T23:50:30.212Z,16.00
2017-06-12T23:52:57.053Z,16.00
2017-06-12T23:55:23.691Z,16.00
2017-06-12T23:57:50.260Z,15.90
